Flight Track Log - Related Links

Times and Time Zones

All times are in EDT time to prevent confusion due to time zone crossing. See the C-FJXO flight status page for this flight to view local times or setup timezone preferences in your user account.

Time Position Orientation Groundspeed Altitude Reporting Facility
EDT Latitude Longitude Course Direction KTS MPH feet Rate Location/Type
Mon 02:23:58 PM 56.3500 -79.8167 270° West 140 161 19,400  Level Winnipeg Center
Mon 02:24:20 PM 56.3500 -79.9500 270° West 140 161 19,600 300 Climbing Montreal Center
Mon 02:25:58 PM 56.3333 -79.9667 209° Southwest 170 196 20,000 200 Climbing Winnipeg Center
Mon 02:26:20 PM 56.3333 -80.0833 270° West 170 196 20,000 73 Level Montreal Center
Mon 02:27:20 PM 56.3167 -80.1833 253° West 180 207 20,100  Climbing Montreal Center
Mon 02:28:58 PM 56.2667 -80.2167 200° South 190 219 20,000 -50 Descending Winnipeg Center
Mon 02:29:20 PM 56.2667 -80.3500 270° West 190 219 20,000  Level Montreal Center
Mon 02:30:20 PM 56.2333 -80.4500 239° Southwest 190 219 20,000  Level Montreal Center
Mon 02:31:58 PM 56.1833 -80.4667 191° South 200 230 20,000  Level Winnipeg Center
Mon 02:32:20 PM 56.2000 -80.6167 281° West 200 230 20,000  Level Montreal Center
Mon 02:33:20 PM 56.1667 -80.7167 239° Southwest 200 230 20,000  Level Montreal Center
Mon 02:34:20 PM 56.1500 -80.8000 250° West 200 230 20,000  Level Montreal Center
Mon 02:35:20 PM 56.1167 -80.8833 234° Southwest 200 230 20,000  Level Montreal Center
Mon 02:36:20 PM 56.1000 -81.0000 256° West 200 230 20,000  Level Montreal Center
Mon 02:37:20 PM 56.0667 -81.0833 234° Southwest 200 230 20,000  Level Montreal Center
Mon 02:38:20 PM 56.0500 -81.1833 253° West 200 230 20,000  Level Montreal Center
Mon 02:39:58 PM 55.9833 -81.2167 196° South 210 242 20,000  Level Winnipeg Center
Mon 02:40:58 PM 55.9667 -81.3000 250° West 200 230 20,000  Level Winnipeg Center
Mon 02:41:58 PM 55.9333 -81.4000 239° Southwest 200 230 20,000  Level Winnipeg Center
Mon 02:43:00 PM 55.9070 -81.4990 245° Southwest  Level FlightAware Approximate
Mon 02:43:20 PM 55.9167 -81.6500 245° Southwest 200 230 20,000  Level Montreal Center
Mon 02:44:58 PM 55.8667 -81.6667 191° South 200 230 20,000  Level Winnipeg Center
Mon 02:46:00 PM 55.8400 -81.7653 244° Southwest  Level FlightAware Approximate
Mon 02:46:36 PM 55.8167 -81.8000 244° Southwest 190 219 20,000  Level Winnipeg Center
Mon 02:47:36 PM 55.8000 -81.9000 254° West 200 230 20,000  Level Winnipeg Center
Mon 02:50:00 PM 55.7378 -82.1282 244° Southwest  Level FlightAware Approximate
Mon 02:51:59 PM 55.7000 -82.3000 244° Southwest 200 230 20,000  Level Winnipeg Center
Mon 02:53:59 PM 55.6500 -82.4667 242° Southwest 210 242 20,000  Level Winnipeg Center
Mon 02:54:59 PM 55.6000 -82.5833 233° Southwest 210 242 20,000  Level Winnipeg Center
Mon 02:55:59 PM 55.5833 -82.6833 254° West 210 242 20,000  Level Winnipeg Center
Mon 02:56:59 PM 55.5667 -82.7500 246° West 220 253 20,000  Level Winnipeg Center
Mon 02:57:00 PM 55.5540 -82.7897 244° Southwest  Level FlightAware Approximate
Mon 02:57:59 PM 55.5333 -82.8500 240° Southwest 210 242 20,000  Level Winnipeg Center
Mon 03:00:00 PM 55.5064 -82.9456 244° Southwest  Level FlightAware Approximate
Mon 03:07:00 PM 55.3191 -83.6000 244° Southwest  Level FlightAware Approximate
Mon 03:08:00 PM 55.2920 -83.6930 243° Southwest  Level FlightAware Approximate
Mon 03:09:00 PM 55.2649 -83.7859 243° Southwest  Level FlightAware Approximate
Mon 03:10:00 PM 55.2377 -83.8786 243° Southwest  Level FlightAware Approximate
Mon 03:11:00 PM 55.2105 -83.9712 243° Southwest  Level FlightAware Approximate
Mon 03:12:00 PM 55.1831 -84.0637 243° Southwest  Level FlightAware Approximate
Mon 03:13:00 PM 55.1557 -84.1560 243° Southwest  Level FlightAware Approximate
Mon 03:14:00 PM 55.1283 -84.2483 243° Southwest  Level FlightAware Approximate
Mon 03:15:00 PM 55.1007 -84.3403 242° Southwest  Level FlightAware Approximate
Mon 03:16:00 PM 55.0732 -84.4323 242° Southwest  Level FlightAware Approximate
Mon 03:17:00 PM 55.0455 -84.5242 242° Southwest  Level FlightAware Approximate
Mon 03:18:00 PM 55.0177 -84.6159 242° Southwest  Level FlightAware Approximate
Mon 03:19:00 PM 54.9899 -84.7075 242° Southwest  Level FlightAware Approximate
Mon 03:20:00 PM 54.9621 -84.7989 242° Southwest  Level FlightAware Approximate
Mon 03:21:00 PM 54.9341 -84.8903 242° Southwest  Level FlightAware Approximate
Mon 03:22:00 PM 54.9061 -84.9815 242° Southwest  Level FlightAware Approximate
Mon 03:23:00 PM 54.8780 -85.0725 242° Southwest  Level FlightAware Approximate
Mon 03:24:00 PM 54.8498 -85.1635 242° Southwest  Level FlightAware Approximate
Mon 03:25:00 PM 54.8213 -85.2545 241° Southwest  Level FlightAware Approximate
Mon 03:26:00 PM 54.7924 -85.3447 241° Southwest  Level FlightAware Approximate
Mon 03:27:00 PM 54.7635 -85.4347 241° Southwest  Level FlightAware Approximate
Mon 03:27:34 PM 54.7333 -85.5000 240° Southwest 220 253 20,000  Level Winnipeg Center
Mon 03:28:00 PM 54.7345 -85.5246 241° Southwest  Level FlightAware Approximate
Mon 03:29:00 PM 54.7054 -85.6143 241° Southwest  Level FlightAware Approximate
Mon 03:29:00 PM 54.6917 -85.6287 241° Southwest  Level Estimated
Mon 03:30:00 PM 54.6763 -85.7040 241° Southwest  Level FlightAware Approximate
Mon 03:31:00 PM 54.6471 -85.7935 241° Southwest  Level FlightAware Approximate
Mon 03:31:34 PM 54.6167 -85.8667 240° Southwest 210 242 20,000  Level Winnipeg Center
Mon 03:32:00 PM 54.6178 -85.8829 241° Southwest  Level FlightAware Approximate
Mon 03:33:00 PM 54.5885 -85.9721 240° Southwest  Level FlightAware Approximate
Mon 03:33:34 PM 54.5667 -86.0167 240° Southwest 210 242 20,000  Level Winnipeg Center
Mon 03:34:34 PM 54.5333 -86.1167 240° Southwest 210 242 20,000  Level Winnipeg Center
Mon 03:35:34 PM 54.5000 -86.2000 235° Southwest 210 242 20,000  Level Winnipeg Center
Mon 03:36:00 PM 54.4867 -86.2535 241° Southwest  Level Estimated
Mon 03:36:34 PM 54.4667 -86.2833 235° Southwest 210 242 20,000  Level Winnipeg Center
Mon 03:37:00 PM 54.4572 -86.3422 240° Southwest  Level Estimated
Mon 03:37:34 PM 54.4333 -86.3667 236° Southwest 210 242 20,000  Level Winnipeg Center
Mon 03:39:00 PM 54.3910 -86.4937 240° Southwest  Level FlightAware Approximate
Mon 03:39:34 PM 54.3833 -86.5500 240° Southwest 210 242 20,000  Level Winnipeg Center
Mon 03:40:34 PM 54.3667 -86.6167 247° West 210 242 20,000  Level Winnipeg Center
Mon 03:41:34 PM 54.3333 -86.7167 240° Southwest 210 242 20,000  Level Winnipeg Center
Mon 03:43:34 PM 54.2667 -86.8833 236° Southwest 210 242 20,000  Level Winnipeg Center
Mon 03:44:34 PM 54.2333 -86.9667 236° Southwest 210 242 20,000  Level Winnipeg Center
Mon 03:45:34 PM 54.2167 -87.0667 254° West 210 242 20,000  Level Winnipeg Center
Mon 03:46:34 PM 54.1667 -87.1667 230° Southwest 210 242 20,000  Level Winnipeg Center
Mon 03:48:34 PM 54.1167 -87.3167 240° Southwest 210 242 20,000  Level Winnipeg Center
Mon 03:50:00 PM 54.0733 -87.4417 239° Southwest  Level FlightAware Approximate
Mon 03:50:34 PM 54.0667 -87.5000 239° Southwest 210 242 20,000  Level Winnipeg Center
Mon 03:51:34 PM 54.0333 -87.6000 240° Southwest 210 242 20,000  Level Winnipeg Center
Mon 03:52:34 PM 53.9833 -87.6667 218° Southwest 210 242 20,000  Level Winnipeg Center
Mon 03:54:00 PM 53.9397 -87.7911 239° Southwest  Level FlightAware Approximate
Mon 03:55:34 PM 53.9167 -87.9333 239° Southwest 210 242 20,000  Level Winnipeg Center
Mon 03:57:00 PM 53.8725 -88.0569 239° Southwest  Level Estimated
Mon 03:57:34 PM 53.8333 -88.1000 239° Southwest 210 242 20,000  Level Winnipeg Center
Mon 03:58:34 PM 53.8167 -88.1833 251° West 220 253 20,000  Level Winnipeg Center
Mon 04:00:00 PM 53.7723 -88.3065 239° Southwest  Level FlightAware Approximate
Mon 04:01:00 PM 53.7249 -88.3949 239° Southwest  Level FlightAware Approximate
Mon 04:01:34 PM 53.7167 -88.4333 239° Southwest 220 253 20,000  Level Winnipeg Center
Mon 04:03:00 PM 53.6721 -88.5560 239° Southwest  Level Estimated
Mon 04:04:34 PM 53.6167 -88.7167 238° Southwest 220 253 20,000  Level Winnipeg Center
Mon 04:06:00 PM 53.5719 -88.8388 238° Southwest  Level FlightAware Approximate
Mon 04:07:00 PM 53.5541 -88.9043 239° Southwest  Level FlightAware Approximate
Mon 04:08:34 PM 53.4833 -89.0500 238° Southwest 220 253 20,000  Level Winnipeg Center
Mon 04:09:34 PM 53.4500 -89.1333 236° Southwest 220 253 20,000  Level Winnipeg Center
Mon 04:10:00 PM 53.4529 -89.1514 238° Southwest  Level Estimated
Mon 04:10:34 PM 53.4333 -89.2333 254° West 220 253 20,000  Level Winnipeg Center
Mon 04:11:34 PM 53.3833 -89.3167 225° Southwest 220 253 20,000  Level Winnipeg Center
Mon 04:12:34 PM 53.3500 -89.4000 236° Southwest 220 253 20,000  Level Winnipeg Center
Mon 04:13:00 PM 53.3514 -89.4314 238° Southwest  Level FlightAware Approximate
Mon 04:14:00 PM 53.3196 -89.5156 238° Southwest  Level FlightAware Approximate
Mon 04:14:00 PM 53.3047 -89.5208 238° Southwest  Level FlightAware Approximate
Mon 04:14:34 PM 53.3000 -89.5833 238° Southwest 220 253 20,000  Level Winnipeg Center
Mon 04:16:00 PM 53.2543 -89.7035 238° Southwest  Level FlightAware Approximate
Mon 04:16:34 PM 53.2333 -89.7667 238° Southwest 230 265 20,000  Level Winnipeg Center
Mon 04:17:34 PM 53.2000 -89.8500 236° Southwest 230 265 20,000  Level Winnipeg Center
Mon 04:18:34 PM 53.1500 -89.9500 230° Southwest 230 265 20,000  Level Winnipeg Center
Mon 04:19:34 PM 53.1167 -90.0333 236° Southwest 230 265 20,000  Level Winnipeg Center
Mon 04:20:34 PM 53.0833 -90.1333 241° Southwest 230 265 20,000  Level Winnipeg Center
Mon 04:22:00 PM 53.0371 -90.2524 237° Southwest  Level FlightAware Approximate
Mon 04:22:34 PM 53.0167 -90.2833 237° Southwest 230 265 20,000  Level Winnipeg Center
Mon 04:24:00 PM 52.9704 -90.4022 237° Southwest  Level FlightAware Approximate
Mon 04:24:34 PM 52.9500 -90.4500 237° Southwest 230 265 20,000  Level Winnipeg Center
Mon 04:25:34 PM 52.9167 -90.5667 245° Southwest 230 265 20,000  Level Winnipeg Center
Mon 04:26:34 PM 52.8667 -90.6667 230° Southwest 230 265 20,000  Level Winnipeg Center
Mon 04:27:34 PM 52.8500 -90.7500 252° West 230 265 20,000  Level Winnipeg Center
Mon 04:29:00 PM 52.8030 -90.8676 237° Southwest  Level FlightAware Approximate
Mon 04:29:34 PM 52.7667 -90.9333 237° Southwest 230 265 20,000  Level Winnipeg Center
Mon 04:30:34 PM 52.7333 -91.0167 237° Southwest 240 276 20,000  Level Winnipeg Center
Mon 04:32:00 PM 52.6863 -91.1339 237° Southwest  Level FlightAware Approximate
Mon 04:34:34 PM 52.5833 -91.3667 236° Southwest 230 265 20,000  Level Winnipeg Center
Mon 04:35:34 PM 52.5500 -91.4500 237° Southwest 230 265 20,000  Level Winnipeg Center
Mon 04:37:00 PM 52.5025 -91.5663 236° Southwest  Level Estimated
Mon 04:38:34 PM 52.4333 -91.7167 236° Southwest 230 265 20,000  Level Winnipeg Center
Mon 04:39:00 PM 52.4549 -91.7028 236° Southwest  Level FlightAware Approximate
Mon 04:39:34 PM 52.4167 -91.8000 252° West 240 276 20,000  Level Winnipeg Center
Mon 04:40:00 PM 52.4216 -91.7836 236° Southwest  Level FlightAware Approximate
Mon 04:40:34 PM 52.3667 -91.8833 226° Southwest 240 276 20,000  Level Winnipeg Center
Mon 04:42:00 PM 52.3189 -91.9988 236° Southwest  Level Estimated
Mon 04:43:34 PM 52.2500 -92.1500 236° Southwest 240 276 20,000  Level Winnipeg Center
Mon 04:44:00 PM 52.2692 -92.1306 236° Southwest  Level Estimated
Mon 04:44:34 PM 52.2167 -92.2667 245° Southwest 240 276 20,000  Level Winnipeg Center
Mon 04:46:00 PM 52.1684 -92.3811 235° Southwest  Level Estimated
Mon 04:46:34 PM 52.1333 -92.4333 235° Southwest 240 276 20,000  Level Winnipeg Center
Mon 04:47:34 PM 52.1000 -92.5167 237° Southwest 240 276 20,000  Level Winnipeg Center
Mon 04:48:34 PM 52.0500 -92.6000 226° Southwest 240 276 20,000  Level Winnipeg Center
Mon 04:49:00 PM 52.0838 -92.5589 236° Southwest  Level Estimated
Mon 04:49:34 PM 52.0333 -92.6833 252° West 240 276 20,000  Level Winnipeg Center
Mon 04:50:34 PM 51.9833 -92.7833 231° Southwest 240 276 20,000  Level Winnipeg Center
Mon 04:52:00 PM 51.9347 -92.8969 235° Southwest  Level Estimated
Mon 04:52:34 PM 51.9000 -92.9667 235° Southwest 240 276 20,000  Level Winnipeg Center
Mon 04:53:34 PM 51.8667 -93.0667 242° Southwest 240 276 20,000  Level Winnipeg Center
Mon 04:54:34 PM 51.8167 -93.1500 226° Southwest 240 276 20,000  Level Winnipeg Center
Mon 04:55:34 PM 51.8000 -93.2333 252° West 250 288 20,000  Level Winnipeg Center
Mon 04:56:34 PM 51.7500 -93.3333 231° Southwest 250 288 20,000  Level Winnipeg Center
Mon 04:57:34 PM 51.7167 -93.4167 237° Southwest 240 276 20,000  Level Winnipeg Center
Mon 04:58:34 PM 51.6667 -93.5167 231° Southwest 250 288 20,000  Level Winnipeg Center
Mon 05:00:34 PM 51.5833 -93.7000 234° Southwest 250 288 20,000  Level Winnipeg Center
Mon 05:01:34 PM 51.5500 -93.7833 237° Southwest 260 299 20,000  Level Winnipeg Center
Mon 05:02:34 PM 51.5167 -93.8667 237° Southwest 260 299 20,000  Level Winnipeg Center
Mon 05:03:34 PM 51.4667 -93.9833 236° Southwest 250 288 20,000  Level Winnipeg Center
Mon 05:04:34 PM 51.4333 -94.0667 237° Southwest 250 288 20,000  Level Winnipeg Center
Mon 05:05:34 PM 51.3833 -94.1500 226° Southwest 250 288 20,000  Level Winnipeg Center
Mon 05:06:34 PM 51.3333 -94.2667 236° Southwest 260 299 20,000  Level Winnipeg Center
Mon 05:08:00 PM 51.2833 -94.3770 234° Southwest  Level Estimated
Mon 05:08:34 PM 51.2500 -94.4167 234° Southwest 250 288 20,000  Level Winnipeg Center
Mon 05:09:34 PM 51.2000 -94.5000 226° Southwest 250 288 20,000  Level Winnipeg Center
Mon 05:11:00 PM 51.1504 -94.6105 234° Southwest  Level Estimated
Mon 05:11:34 PM 51.1333 -94.7000 234° Southwest 260 299 20,000  Level Winnipeg Center
Mon 05:12:34 PM 51.0833 -94.8000 232° Southwest 260 299 20,000  Level Winnipeg Center
Mon 05:13:34 PM 51.0333 -94.8833 226° Southwest 260 299 20,000  Level Winnipeg Center
Mon 05:14:34 PM 51.0000 -94.9667 238° Southwest 260 299 20,000  Level Winnipeg Center
Mon 05:15:34 PM 50.9500 -95.0833 236° Southwest 250 288 20,000  Level Winnipeg Center
Mon 05:16:34 PM 50.9167 -95.1667 238° Southwest 270 311 20,000  Level Winnipeg Center
Mon 05:17:34 PM 50.8667 -95.2667 232° Southwest 270 311 20,000  Level Winnipeg Center
Mon 05:18:34 PM 50.8167 -95.3500 226° Southwest 270 311 20,000  Level Winnipeg Center
Mon 05:19:34 PM 50.7500 -95.4333 218° Southwest 270 311 20,000  Level Winnipeg Center
Mon 05:20:34 PM 50.7000 -95.5167 227° Southwest 260 299 20,000  Level Winnipeg Center
Mon 05:22:00 PM 50.6605 -95.6358 242° Southwest  Level FlightAware Approximate
Mon 05:23:34 PM 50.5667 -95.7833 231° Southwest 270 311 20,000  Level Winnipeg Center
Mon 05:24:34 PM 50.5000 -95.8667 219° Southwest 270 311 20,000 -550 Level Winnipeg Center
Mon 05:25:34 PM 50.4500 -95.9333 220° Southwest 270 311 18,900 -1,250 Descending Winnipeg Center
Mon 05:26:34 PM 50.4000 -96.0167 227° Southwest 280 322 17,500 -1,450 Descending Winnipeg Center
Mon 05:27:34 PM 50.3333 -96.1000 219° Southwest 280 322 16,000 -1,400 Descending Winnipeg Center
Mon 05:28:34 PM 50.2833 -96.2000 232° Southwest 280 322 14,700 -1,450 Descending Winnipeg Center
Mon 05:29:00 PM 50.4283 -96.1825 231° Southwest  Level FlightAware Approximate
Mon 05:29:34 PM 50.2333 -96.2833 227° Southwest 280 322 13,100  Level Winnipeg Center
Mon 05:30:34 PM 50.2000 -96.3833 243° Southwest 280 322 11,800 -1,400 Descending Winnipeg Center
Mon 05:31:34 PM 50.1667 -96.5167 249° West 270 311 10,300 -1,500 Descending Winnipeg Center
Mon 05:32:34 PM 50.1500 -96.6333 257° West 270 311 8,800 -1,333 Descending Winnipeg Center
Mon 05:34:00 PM 50.0902 -96.7290 226° Southwest  Level FlightAware Approximate
Mon 05:34:34 PM 50.0833 -96.8167 226° Southwest 240 276 6,300  Level Winnipeg Center
Mon 05:35:34 PM 50.0667 -96.9167 255° West 250 288 5,500 -1,200 Descending Winnipeg Center
Mon 05:36:34 PM 50.0333 -97.0167 243° Southwest 240 276 3,900 -900 Descending Winnipeg Center
Mon 05:38:00 PM 49.9768 -97.1167 232° Southwest  Level Estimated
Mon 05:38:34 PM 49.9833 -97.1667 232° Southwest 190 219 2,800  Level Winnipeg Center
Mon 05:39:34 PM 49.9500 -97.2333 232° Southwest 160 184 1,700 -950 Descending Winnipeg Center
Mon 05:40:34 PM 49.9167 -97.2333 180° South 140 161 900 -500 Descending Winnipeg Center
Mon 05:41:34 PM 49.8833 -97.2333 180° South 40 46 700 -100 Descending Winnipeg Center
Mon 05:42:34 PM 49.9000 -97.2333 360° North 50 58 700  Level Winnipeg Center

Login

Don't have an account? Register now (free) for customized features, flight alerts, and more!